Time;durP1;ratioP1;P1;durP2;ratioP2;P2;SDS_P1;SDS_P2;PMS_P1;PMS_P2;Temp;Humidity;BMP_temperature;BMP_pressure;BME280_temperature;BME280_humidity;BME280_pressure;Samples;Min_cycle;Max_cycle;Signal;HPM_P1;HPM_P2
2023/06/21 00:01:40;;;;;;;1.60;0.70;;;17.50;99.90;;;;;;5003703;28;20058;-82
2023/06/21 00:04:09;;;;;;;1.05;0.85;;;17.50;99.90;;;;;;4986867;28;20049;-82
2023/06/21 00:06:37;;;;;;;1.08;0.70;;;17.50;99.90;;;;;;4986714;28;20049;-81
2023/06/21 00:09:04;;;;;;;1.00;0.60;;;17.40;99.90;;;;;;4970617;28;20062;-82
2023/06/21 00:11:31;;;;;;;0.63;0.60;;;17.40;99.90;;;;;;4987151;28;20045;-82
2023/06/21 00:13:58;;;;;;;0.95;0.70;;;17.30;99.90;;;;;;5002278;28;20069;-82
2023/06/21 00:16:25;;;;;;;0.93;0.60;;;17.30;99.90;;;;;;4970331;28;20058;-82
2023/06/21 00:18:52;;;;;;;0.73;0.70;;;17.30;99.90;;;;;;4970658;28;20065;-82
2023/06/21 00:21:19;;;;;;;0.85;0.60;;;17.30;99.90;;;;;;5002283;28;20054;-82
2023/06/21 00:23:46;;;;;;;0.77;0.68;;;17.30;99.90;;;;;;4983245;28;20056;-82
2023/06/21 00:26:12;;;;;;;1.30;0.80;;;17.20;99.90;;;;;;4999475;28;20053;-81
2023/06/21 00:28:39;;;;;;;0.52;0.50;;;17.20;99.90;;;;;;5000455;28;20126;-82
2023/06/21 00:31:10;;;;;;;0.90;0.43;;;17.20;99.90;;;;;;5000766;28;20141;-82
2023/06/21 00:33:38;;;;;;;0.60;0.50;;;17.20;99.90;;;;;;4984821;28;21522;-82
2023/06/21 00:36:05;;;;;;;0.93;0.70;;;17.10;99.90;;;;;;4982190;28;20037;-82
2023/06/21 00:38:34;;;;;;;1.38;0.73;;;17.10;99.90;;;;;;5000369;28;20086;-81
2023/06/21 00:41:05;;;;;;;0.85;0.60;;;17.00;99.90;;;;;;4999526;28;20581;-82
2023/06/21 00:43:32;;;;;;;1.08;0.70;;;17.00;99.90;;;;;;5002085;28;20135;-84
2023/06/21 00:45:59;;;;;;;0.75;0.60;;;17.00;99.90;;;;;;4997927;28;20042;-81
2023/06/21 00:48:29;;;;;;;1.00;0.57;;;17.00;99.90;;;;;;5002356;28;20045;-82
2023/06/21 00:50:56;;;;;;;0.65;0.60;;;16.90;99.90;;;;;;5003111;28;20045;-81
2023/06/21 00:53:27;;;;;;;0.70;0.50;;;16.90;99.90;;;;;;4985441;28;20088;-81
2023/06/21 00:55:55;;;;;;;0.80;0.43;;;16.90;99.90;;;;;;4986423;28;20382;-81
2023/06/21 00:58:23;;;;;;;0.65;0.57;;;16.80;99.90;;;;;;5002053;28;20104;-82
2023/06/21 01:00:50;;;;;;;0.88;0.57;;;16.80;99.90;;;;;;5000977;28;20485;-82
2023/06/21 01:03:18;;;;;;;1.27;0.95;;;16.80;99.90;;;;;;5000293;28;20053;-81
2023/06/21 01:06:15;;;;;;;0.73;0.57;;;16.70;99.90;;;;;;4998836;28;20516;-81
2023/06/21 01:09:05;;;;;;;0.85;0.55;;;16.70;99.90;;;;;;4990705;28;20130;-81
2023/06/21 01:12:06;;;;;;;1.45;0.75;;;16.70;99.90;;;;;;4996212;28;20053;-81
2023/06/21 01:14:44;;;;;;;0.68;0.60;;;16.60;99.90;;;;;;4979432;28;20132;-81
2023/06/21 01:17:11;;;;;;;0.68;0.57;;;16.60;99.90;;;;;;5001587;28;20037;-82
2023/06/21 01:19:56;;;;;;;1.02;0.65;;;16.60;99.90;;;;;;4985219;28;20060;-82
2023/06/21 01:22:51;;;;;;;1.13;0.82;;;16.70;99.90;;;;;;4985221;28;20056;-82
2023/06/21 01:25:50;;;;;;;1.63;1.00;;;16.70;99.90;;;;;;5001517;28;20148;-82
2023/06/21 01:28:45;;;;;;;1.30;0.85;;;16.80;99.90;;;;;;5000453;28;20052;-82
2023/06/21 01:31:15;;;;;;;1.58;1.20;;;16.80;99.90;;;;;;4999791;28;20133;-81
2023/06/21 01:33:42;;;;;;;1.50;1.10;;;16.80;99.90;;;;;;4985820;28;20065;-82
2023/06/21 01:36:09;;;;;;;1.85;1.40;;;16.80;99.90;;;;;;4985298;28;20089;-81
2023/06/21 01:38:36;;;;;;;1.20;1.08;;;16.90;99.90;;;;;;4985835;28;20061;-82
2023/06/21 01:41:03;;;;;;;2.40;1.35;;;16.90;99.90;;;;;;5004926;28;20042;-82
2023/06/21 01:43:30;;;;;;;1.75;1.35;;;16.90;99.90;;;;;;5005591;28;20053;-82
2023/06/21 01:45:58;;;;;;;1.85;1.30;;;17.00;99.90;;;;;;5002742;28;20074;-82
2023/06/21 01:48:25;;;;;;;2.00;1.50;;;17.00;99.90;;;;;;4997615;28;20088;-82
2023/06/21 01:50:52;;;;;;;1.10;1.00;;;16.90;99.90;;;;;;5005254;28;20080;-82
2023/06/21 01:53:19;;;;;;;1.48;1.10;;;17.00;99.90;;;;;;5002733;28;20054;-81
2023/06/21 01:55:48;;;;;;;1.50;1.20;;;17.00;99.90;;;;;;5002998;28;20081;-82
2023/06/21 01:58:15;;;;;;;1.45;1.20;;;17.10;99.90;;;;;;4987130;28;20049;-82
2023/06/21 02:00:44;;;;;;;1.33;1.05;;;17.10;99.90;;;;;;4986133;28;20041;-82
2023/06/21 02:03:11;;;;;;;1.58;1.05;;;17.20;99.90;;;;;;5003296;28;20054;-82
2023/06/21 02:05:37;;;;;;;1.70;1.10;;;17.20;99.90;;;;;;4986599;28;20133;-82
2023/06/21 02:08:04;;;;;;;2.47;1.10;;;17.30;99.90;;;;;;5002441;28;20112;-82
2023/06/21 02:10:31;;;;;;;1.38;1.05;;;17.30;99.90;;;;;;4986201;28;20046;-82
2023/06/21 02:12:58;;;;;;;1.17;1.08;;;17.30;99.90;;;;;;4986867;28;20080;-82
2023/06/21 02:15:25;;;;;;;0.80;0.80;;;17.30;99.90;;;;;;5002668;28;20073;-82
2023/06/21 02:17:52;;;;;;;1.20;0.95;;;17.30;99.90;;;;;;5004576;28;20053;-82
2023/06/21 02:20:19;;;;;;;1.20;0.85;;;17.30;99.90;;;;;;5003029;28;20057;-82
2023/06/21 02:22:46;;;;;;;1.13;0.95;;;17.30;99.90;;;;;;5001863;28;20049;-82
2023/06/21 02:25:14;;;;;;;1.67;1.20;;;17.40;99.90;;;;;;5002309;28;20133;-82
2023/06/21 02:27:41;;;;;;;1.30;0.93;;;17.30;99.90;;;;;;5002880;28;20053;-82
2023/06/21 02:30:08;;;;;;;1.20;0.90;;;17.30;99.90;;;;;;5002643;28;20049;-82
2023/06/21 02:32:35;;;;;;;0.98;0.80;;;17.30;99.90;;;;;;5000394;28;20058;-82
2023/06/21 02:35:02;;;;;;;1.38;1.08;;;17.30;99.90;;;;;;5002424;28;20046;-82
2023/06/21 02:37:29;;;;;;;1.23;0.90;;;17.30;99.90;;;;;;5002278;28;20468;-82
2023/06/21 02:39:56;;;;;;;1.63;1.00;;;17.30;99.90;;;;;;4986165;28;20046;-81
2023/06/21 02:42:23;;;;;;;0.93;0.70;;;17.30;99.90;;;;;;4986597;28;20042;-83
2023/06/21 02:44:50;;;;;;;1.00;0.77;;;17.20;99.90;;;;;;5002883;28;20053;-82
2023/06/21 02:47:16;;;;;;;1.10;0.93;;;17.20;99.90;;;;;;5003139;28;20546;-82
2023/06/21 02:49:43;;;;;;;0.95;0.88;;;17.10;99.90;;;;;;5002747;28;20096;-82
2023/06/21 02:52:10;;;;;;;1.20;0.98;;;16.90;99.90;;;;;;5003365;28;20045;-82
2023/06/21 02:54:37;;;;;;;0.75;0.75;;;16.90;99.90;;;;;;5003648;28;20046;-82
2023/06/21 02:57:04;;;;;;;1.15;1.00;;;16.90;99.90;;;;;;5002516;28;20107;-82
2023/06/21 02:59:30;;;;;;;1.02;0.90;;;16.80;99.90;;;;;;5000266;28;20053;-82
2023/06/21 03:01:59;;;;;;;1.15;1.05;;;16.80;99.90;;;;;;5002881;28;20120;-82
2023/06/21 03:04:26;;;;;;;1.33;0.93;;;16.70;99.90;;;;;;4986893;28;20049;-82
2023/06/21 03:06:53;;;;;;;1.50;1.10;;;16.70;99.90;;;;;;5005501;28;20046;-82
2023/06/21 03:09:19;;;;;;;1.27;1.10;;;16.60;99.90;;;;;;5007156;28;20058;-82
2023/06/21 03:11:47;;;;;;;1.40;1.20;;;16.60;99.90;;;;;;5006883;28;20049;-82
2023/06/21 03:14:14;;;;;;;0.95;0.85;;;16.60;99.90;;;;;;5006176;28;20104;-82
2023/06/21 03:16:41;;;;;;;1.30;0.85;;;16.50;99.90;;;;;;5005084;28;20561;-81
2023/06/21 03:19:08;;;;;;;1.25;1.00;;;16.40;99.90;;;;;;5005556;28;20505;-81
2023/06/21 03:21:35;;;;;;;1.40;1.00;;;16.40;99.90;;;;;;5006991;28;20054;-81
2023/06/21 03:24:02;;;;;;;1.45;1.10;;;16.40;99.90;;;;;;5006376;28;20493;-82
2023/06/21 03:26:29;;;;;;;1.15;0.90;;;16.30;99.90;;;;;;5005718;28;20423;-82
2023/06/21 03:28:57;;;;;;;1.85;1.40;;;16.20;99.90;;;;;;5006937;28;20049;-82
2023/06/21 03:31:24;;;;;;;2.00;1.25;;;16.20;99.90;;;;;;5003995;28;20129;-81
2023/06/21 03:33:51;;;;;;;1.60;1.13;;;16.20;99.90;;;;;;5004983;28;20539;-81
2023/06/21 03:36:17;;;;;;;1.10;1.00;;;16.20;99.90;;;;;;5005794;28;20107;-82
2023/06/21 03:38:44;;;;;;;1.30;1.13;;;16.10;99.90;;;;;;5005946;28;20074;-82
2023/06/21 03:41:11;;;;;;;1.75;1.40;;;16.10;99.90;;;;;;5005247;28;20154;-82
2023/06/21 03:43:38;;;;;;;1.70;1.30;;;16.10;99.90;;;;;;5005265;28;20050;-81
2023/06/21 03:46:05;;;;;;;1.67;1.30;;;16.10;99.90;;;;;;5005880;28;20046;-82
2023/06/21 03:48:31;;;;;;;1.15;1.05;;;16.00;99.90;;;;;;5006177;28;20577;-82
2023/06/21 03:50:58;;;;;;;1.85;1.40;;;16.00;99.90;;;;;;5005481;28;20056;-81
2023/06/21 03:53:27;;;;;;;2.00;1.42;;;16.00;99.90;;;;;;5005108;28;20058;-81
2023/06/21 03:55:53;;;;;;;1.75;1.30;;;16.00;99.90;;;;;;5006464;28;20145;-82
2023/06/21 03:58:20;;;;;;;2.30;1.73;;;15.90;99.90;;;;;;5005240;28;20100;-82
2023/06/21 04:00:47;;;;;;;1.35;1.10;;;15.90;99.90;;;;;;5004227;28;20086;-81
2023/06/21 04:03:14;;;;;;;1.73;1.33;;;16.00;99.90;;;;;;5005091;28;20561;-82
2023/06/21 04:05:41;;;;;;;1.75;1.33;;;16.00;99.90;;;;;;5006310;28;20431;-81
2023/06/21 04:08:08;;;;;;;1.65;1.30;;;16.00;99.90;;;;;;5005513;28;20100;-82
2023/06/21 04:10:34;;;;;;;1.73;1.33;;;16.00;99.90;;;;;;5005937;28;20469;-82
2023/06/21 04:13:01;;;;;;;1.80;1.50;;;16.00;99.90;;;;;;5006476;28;20046;-81
2023/06/21 04:15:29;;;;;;;1.33;1.23;;;16.00;99.90;;;;;;5003106;28;20560;-83
2023/06/21 04:17:56;;;;;;;1.67;1.48;;;16.00;99.90;;;;;;5003709;28;20449;-81
2023/06/21 04:20:23;;;;;;;1.80;1.55;;;16.00;99.90;;;;;;5004379;28;20493;-82
2023/06/21 04:22:50;;;;;;;1.90;1.63;;;16.00;99.90;;;;;;5005365;28;20074;-82
2023/06/21 04:25:18;;;;;;;2.10;1.60;;;16.00;99.90;;;;;;5001631;28;20050;-82
2023/06/21 04:27:47;;;;;;;2.10;1.40;;;16.00;99.90;;;;;;5004788;28;20057;-82
2023/06/21 04:30:14;;;;;;;2.13;1.38;;;16.00;99.90;;;;;;4969321;28;20066;-82
2023/06/21 04:32:47;;;;;;;1.40;1.30;;;16.00;99.90;;;;;;5002397;28;20456;-81
2023/06/21 04:35:15;;;;;;;5.38;1.90;;;16.00;99.90;;;;;;5004973;28;20046;-82
2023/06/21 04:37:46;;;;;;;1.77;1.45;;;16.10;99.90;;;;;;4983602;28;20046;-82
2023/06/21 04:40:15;;;;;;;1.52;1.33;;;16.10;99.90;;;;;;5003702;28;20050;-82
2023/06/21 04:42:45;;;;;;;1.48;1.30;;;16.10;99.90;;;;;;5004274;28;20042;-79
2023/06/21 04:45:16;;;;;;;1.40;1.08;;;16.10;99.90;;;;;;5003482;28;20048;-82
2023/06/21 04:47:46;;;;;;;1.65;1.40;;;16.10;99.90;;;;;;5004108;28;20041;-81
2023/06/21 04:50:14;;;;;;;1.55;1.40;;;16.10;99.90;;;;;;5002108;28;20260;-81
2023/06/21 04:52:48;;;;;;;1.58;1.17;;;16.20;99.90;;;;;;4999387;28;20052;-82
2023/06/21 04:55:20;;;;;;;1.88;1.52;;;16.20;99.90;;;;;;4996338;28;20048;-81
2023/06/21 04:57:47;;;;;;;2.03;1.77;;;16.20;99.90;;;;;;5000410;28;20049;-82
2023/06/21 05:00:15;;;;;;;1.85;1.55;;;16.30;99.90;;;;;;4969032;28;20246;-82
2023/06/21 05:02:41;;;;;;;1.88;1.67;;;16.40;99.90;;;;;;4997189;28;20449;-82
2023/06/21 05:05:09;;;;;;;2.65;1.60;;;16.40;99.90;;;;;;4981567;28;20051;-82
2023/06/21 05:07:39;;;;;;;1.92;1.38;;;16.40;99.90;;;;;;4994805;28;20042;-82
2023/06/21 05:10:07;;;;;;;1.73;1.40;;;16.40;99.90;;;;;;4999766;28;20057;-82
2023/06/21 05:12:35;;;;;;;1.67;1.55;;;16.50;99.90;;;;;;4980538;28;20045;-82
2023/06/21 05:15:01;;;;;;;1.48;1.38;;;16.50;99.90;;;;;;4999367;28;20104;-83
2023/06/21 05:17:28;;;;;;;1.65;1.38;;;16.60;99.90;;;;;;4995906;28;20050;-82
2023/06/21 05:19:55;;;;;;;1.95;1.70;;;16.70;99.90;;;;;;4997609;28;20053;-82
2023/06/21 05:22:22;;;;;;;1.92;1.65;;;16.70;99.90;;;;;;5001734;28;20492;-83
2023/06/21 05:24:49;;;;;;;1.88;1.70;;;16.70;99.90;;;;;;4996190;28;20181;-82
2023/06/21 05:27:16;;;;;;;1.80;1.40;;;16.70;99.90;;;;;;4983876;28;20084;-81
2023/06/21 05:29:42;;;;;;;1.83;1.40;;;16.80;99.90;;;;;;4994718;28;20052;-79
2023/06/21 05:32:10;;;;;;;1.48;1.23;;;16.80;99.90;;;;;;4995053;28;20112;-79
2023/06/21 05:34:37;;;;;;;1.38;1.15;;;16.80;99.90;;;;;;4999109;28;20513;-80
2023/06/21 05:37:04;;;;;;;1.13;1.02;;;16.90;99.90;;;;;;4997424;28;20057;-80
2023/06/21 05:39:31;;;;;;;1.25;1.05;;;17.00;99.90;;;;;;5001388;28;20075;-79
2023/06/21 05:41:57;;;;;;;1.85;1.45;;;17.00;99.90;;;;;;4996960;28;20042;-78
2023/06/21 05:44:24;;;;;;;2.35;1.73;;;17.10;99.90;;;;;;4999162;28;20050;-78
2023/06/21 05:46:51;;;;;;;1.98;1.75;;;17.10;99.90;;;;;;4989557;28;20731;-78
2023/06/21 05:49:19;;;;;;;2.25;2.05;;;17.10;99.90;;;;;;4996319;28;20063;-78
2023/06/21 05:51:45;;;;;;;1.70;1.48;;;17.10;99.90;;;;;;4993187;28;20069;-78
2023/06/21 05:54:12;;;;;;;2.20;1.90;;;17.10;99.90;;;;;;4991848;28;20133;-78
2023/06/21 05:56:41;;;;;;;2.50;1.67;;;17.20;99.90;;;;;;4993779;28;20141;-78
2023/06/21 05:59:08;;;;;;;2.28;2.00;;;17.20;99.90;;;;;;4995709;28;20057;-78
2023/06/21 06:01:35;;;;;;;2.33;1.88;;;17.30;99.90;;;;;;4985115;28;20156;-78
2023/06/21 06:04:02;;;;;;;2.08;1.88;;;17.30;99.90;;;;;;4978823;28;20968;-78
2023/06/21 06:06:38;;;;;;;3.42;2.20;;;17.30;99.90;;;;;;4998221;28;20129;-78
2023/06/21 06:09:06;;;;;;;1.70;1.30;;;17.40;99.90;;;;;;4996514;28;20049;-77
2023/06/21 06:11:33;;;;;;;2.58;1.83;;;17.50;99.90;;;;;;4993746;28;20140;-77
2023/06/21 06:14:00;;;;;;;1.50;1.30;;;17.60;99.90;;;;;;5000027;28;20058;-78
2023/06/21 06:16:27;;;;;;;2.08;1.45;;;17.60;99.90;;;;;;4992366;28;20058;-78
2023/06/21 06:18:53;;;;;;;1.42;1.33;;;17.70;99.90;;;;;;4997552;28;20058;-77
2023/06/21 06:21:21;;;;;;;1.85;1.25;;;17.70;99.90;;;;;;5002474;28;20122;-78
2023/06/21 06:23:50;;;;;;;2.42;2.15;;;17.80;99.90;;;;;;4963679;28;20081;-78
2023/06/21 06:26:24;;;;;;;1.30;1.13;;;17.80;99.90;;;;;;4989157;28;20046;-78
2023/06/21 06:28:51;;;;;;;1.40;1.30;;;17.90;99.90;;;;;;4980747;28;20171;-78
2023/06/21 06:31:22;;;;;;;1.52;1.20;;;17.90;99.90;;;;;;4997237;28;20148;-79
2023/06/21 06:33:50;;;;;;;1.77;1.40;;;17.90;99.90;;;;;;5002149;28;20057;-78
2023/06/21 06:36:17;;;;;;;1.80;1.40;;;18.00;99.90;;;;;;5001621;28;20058;-78
2023/06/21 06:38:47;;;;;;;1.30;1.02;;;18.00;99.90;;;;;;5000653;28;20053;-79
2023/06/21 06:41:15;;;;;;;1.20;1.08;;;18.10;99.90;;;;;;4988703;28;20049;-78
2023/06/21 06:43:41;;;;;;;1.50;1.25;;;18.20;99.90;;;;;;5000725;28;20748;-79
2023/06/21 06:46:08;;;;;;;1.23;1.05;;;18.20;99.90;;;;;;5000274;28;20056;-77
2023/06/21 06:48:35;;;;;;;1.63;1.27;;;18.30;99.90;;;;;;5015234;28;20045;-77
2023/06/21 06:51:02;;;;;;;1.55;1.00;;;18.30;99.90;;;;;;5012806;28;20420;-78
2023/06/21 06:53:29;;;;;;;1.73;1.48;;;18.40;99.90;;;;;;5007041;28;20100;-78
2023/06/21 06:55:58;;;;;;;1.45;1.23;;;18.40;99.90;;;;;;4999994;28;20046;-78
2023/06/21 06:58:26;;;;;;;1.63;0.90;;;18.60;99.90;;;;;;5002189;28;20116;-78
2023/06/21 07:00:53;;;;;;;1.95;1.58;;;18.60;99.90;;;;;;5002471;28;20112;-77
2023/06/21 07:03:20;;;;;;;1.30;1.20;;;18.60;99.90;;;;;;5001319;28;20049;-77
2023/06/21 07:05:47;;;;;;;1.38;1.20;;;18.70;99.90;;;;;;4984056;28;20056;-77
2023/06/21 07:08:14;;;;;;;1.23;1.02;;;18.80;99.90;;;;;;5003271;28;20120;-78
2023/06/21 07:10:41;;;;;;;1.10;1.00;;;18.80;99.90;;;;;;5002631;28;20085;-78
2023/06/21 07:13:08;;;;;;;1.42;1.33;;;18.90;99.90;;;;;;5008331;28;20046;-90
2023/06/21 07:15:35;;;;;;;1.77;1.30;;;19.00;99.90;;;;;;4999031;28;20053;-91
2023/06/21 07:18:02;;;;;;;1.50;1.30;;;19.00;99.90;;;;;;5000511;28;20050;-91
2023/06/21 07:20:29;;;;;;;1.63;1.40;;;19.10;99.90;;;;;;5000397;28;20045;-90
2023/06/21 07:22:57;;;;;;;1.00;0.90;;;19.10;99.90;;;;;;5014739;28;20655;-91
2023/06/21 07:25:24;;;;;;;1.40;1.27;;;19.10;99.90;;;;;;5014967;28;20065;-91
2023/06/21 07:27:51;;;;;;;1.30;1.13;;;19.10;99.90;;;;;;5017636;28;20452;-90
2023/06/21 07:30:19;;;;;;;2.08;1.13;;;19.20;99.90;;;;;;5021627;28;20054;-90
2023/06/21 07:32:47;;;;;;;1.88;1.25;;;19.30;99.90;;;;;;5009476;28;20935;-91
2023/06/21 07:35:15;;;;;;;1.20;1.08;;;19.40;99.90;;;;;;5017116;28;20053;-90
2023/06/21 07:37:42;;;;;;;1.00;0.85;;;19.40;99.90;;;;;;4985201;28;20240;-92
2023/06/21 07:40:10;;;;;;;1.20;0.98;;;19.50;99.90;;;;;;5015735;28;20122;-92
2023/06/21 07:42:37;;;;;;;0.90;0.85;;;19.50;99.90;;;;;;4983733;28;20104;-93
2023/06/21 07:45:07;;;;;;;1.75;1.23;;;19.60;99.90;;;;;;5017539;28;20077;-92
2023/06/21 07:47:34;;;;;;;0.98;0.90;;;19.70;99.90;;;;;;5008340;28;20210;-88
2023/06/21 07:50:01;;;;;;;1.58;1.00;;;19.80;99.90;;;;;;4987721;28;20046;-88
2023/06/21 07:52:47;;;;;;;1.23;1.02;;;19.80;99.90;;;;;;4992905;28;20443;-86
2023/06/21 07:55:14;;;;;;;1.27;0.80;;;19.90;99.90;;;;;;5000765;28;20069;-87
2023/06/21 07:57:41;;;;;;;1.23;1.00;;;20.00;99.90;;;;;;5001621;28;20054;-88
2023/06/21 08:00:11;;;;;;;1.23;0.98;;;20.10;99.90;;;;;;5004921;28;20515;-88
2023/06/21 08:02:40;;;;;;;0.95;0.73;;;20.20;99.90;;;;;;5018378;28;20125;-88
2023/06/21 08:05:08;;;;;;;0.85;0.75;;;20.30;99.90;;;;;;5003261;28;20745;-91
2023/06/21 08:07:34;;;;;;;1.52;1.00;;;20.40;99.90;;;;;;5005751;28;20108;-90
2023/06/21 08:10:01;;;;;;;1.05;0.90;;;20.40;99.90;;;;;;5008045;28;20085;-90
2023/06/21 08:12:28;;;;;;;0.98;0.63;;;20.30;99.90;;;;;;5009125;28;20042;-88
2023/06/21 08:14:55;;;;;;;1.42;0.68;;;20.30;99.90;;;;;;5005864;28;20053;-88
2023/06/21 08:17:22;;;;;;;0.80;0.60;;;20.40;99.90;;;;;;5007897;28;20776;-88
2023/06/21 08:19:49;;;;;;;0.70;0.70;;;20.50;99.90;;;;;;4997452;28;20050;-87
2023/06/21 08:22:16;;;;;;;1.25;1.10;;;20.60;99.90;;;;;;5008355;28;20148;-82
2023/06/21 08:24:43;;;;;;;0.73;0.60;;;20.70;99.90;;;;;;4995329;28;20053;-93
2023/06/21 08:27:10;;;;;;;0.63;0.63;;;20.80;99.90;;;;;;5014842;28;20137;-93
2023/06/21 08:29:37;;;;;;;0.90;0.63;;;20.90;99.90;;;;;;5020216;28;20057;-94
2023/06/21 08:32:05;;;;;;;1.00;0.70;;;21.10;99.90;;;;;;5021936;28;20085;-92
2023/06/21 08:34:32;;;;;;;0.82;0.75;;;21.10;99.90;;;;;;5014943;28;20053;-92
2023/06/21 08:36:59;;;;;;;1.00;0.55;;;21.10;99.90;;;;;;5015076;28;20058;-93
2023/06/21 08:39:26;;;;;;;0.93;0.70;;;21.20;99.90;;;;;;5015447;28;20662;-93
2023/06/21 08:41:56;;;;;;;1.10;0.80;;;21.30;99.90;;;;;;5014188;28;20627;-92
2023/06/21 08:44:22;;;;;;;0.52;0.50;;;21.40;99.90;;;;;;4993180;28;20386;-93
2023/06/21 08:46:49;;;;;;;1.08;0.55;;;21.60;99.90;;;;;;4997823;28;20104;-91
2023/06/21 08:49:18;;;;;;;0.77;0.77;;;21.60;99.90;;;;;;5014093;28;20061;-93
2023/06/21 08:51:46;;;;;;;0.70;0.70;;;21.80;99.90;;;;;;5012332;28;20149;-91
2023/06/21 08:54:13;;;;;;;1.20;0.80;;;21.90;99.90;;;;;;5014923;28;20490;-92
2023/06/21 08:57:15;;;;;;;1.50;1.00;;;21.80;99.90;;;;;;5014072;28;20108;-92
2023/06/21 09:00:01;;;;;;;0.90;0.70;;;21.90;99.90;;;;;;5009247;28;20062;-94
2023/06/21 09:02:35;;;;;;;0.90;0.80;;;22.10;99.90;;;;;;4994456;28;20124;-92
2023/06/21 09:05:05;;;;;;;0.63;0.60;;;22.20;99.90;;;;;;5011349;28;20066;-93
2023/06/21 09:07:33;;;;;;;1.90;1.05;;;22.30;99.90;;;;;;5011111;28;20107;-89
2023/06/21 09:10:00;;;;;;;0.90;0.70;;;22.50;99.90;;;;;;4995967;28;20058;-91
2023/06/21 09:12:28;;;;;;;0.88;0.70;;;22.60;99.90;;;;;;5010828;28;20050;-91
2023/06/21 09:14:55;;;;;;;0.80;0.60;;;22.60;99.90;;;;;;5010723;28;20094;-92
2023/06/21 09:17:23;;;;;;;1.52;0.80;;;22.50;99.90;;;;;;4994479;28;20427;-92
2023/06/21 09:19:49;;;;;;;0.95;0.80;;;22.40;99.90;;;;;;5010824;28;20132;-91
2023/06/21 09:22:16;;;;;;;0.70;0.60;;;22.40;99.90;;;;;;5017930;28;20487;-94
2023/06/21 09:24:44;;;;;;;1.48;0.82;;;22.50;99.90;;;;;;5018586;28;20071;-93
2023/06/21 09:27:11;;;;;;;0.77;0.70;;;22.60;99.90;;;;;;4989258;28;20149;-92
2023/06/21 09:29:38;;;;;;;1.27;0.65;;;22.70;99.90;;;;;;5004656;28;20054;-93
2023/06/21 09:32:05;;;;;;;1.25;0.80;;;22.80;99.90;;;;;;4987628;28;20069;-94
2023/06/21 09:34:32;;;;;;;1.15;0.85;;;22.80;99.90;;;;;;5025540;28;20224;-94
2023/06/21 09:36:59;;;;;;;1.02;0.93;;;22.70;99.90;;;;;;5016901;28;20073;-94
2023/06/21 09:39:27;;;;;;;0.70;0.70;;;22.70;99.90;;;;;;4998624;28;20665;-94
2023/06/21 09:41:55;;;;;;;0.75;0.73;;;22.90;99.90;;;;;;4997694;28;20120;-94
2023/06/21 09:44:21;;;;;;;0.77;0.70;;;23.00;99.90;;;;;;5013664;28;20049;-94
2023/06/21 09:46:49;;;;;;;0.73;0.60;;;23.20;99.90;;;;;;4981131;28;20046;-94
2023/06/21 09:49:16;;;;;;;0.68;0.63;;;23.30;99.90;;;;;;5013533;28;20055;-93
2023/06/21 09:51:46;;;;;;;1.75;1.00;;;23.40;99.90;;;;;;5015493;28;20062;-93
2023/06/21 09:54:13;;;;;;;1.05;0.77;;;23.40;99.90;;;;;;5016408;28;20164;-93
2023/06/21 09:56:39;;;;;;;0.82;0.80;;;23.40;99.90;;;;;;4996961;28;20054;-94
2023/06/21 09:59:14;;;;;;;1.48;0.80;;;23.60;99.90;;;;;;5012200;28;20148;-94
2023/06/21 10:01:44;;;;;;;1.08;0.75;;;23.60;99.90;;;;;;5012439;28;20054;-93
2023/06/21 10:04:13;;;;;;;0.75;0.70;;;23.50;99.90;;;;;;5011839;28;20058;-94
2023/06/21 10:06:50;;;;;;;0.90;0.80;;;23.40;99.90;;;;;;4997091;28;20476;-94
2023/06/21 10:09:17;;;;;;;0.68;0.68;;;23.30;99.90;;;;;;4992831;28;20047;-94
2023/06/21 10:11:44;;;;;;;1.25;1.00;;;23.30;99.90;;;;;;4977498;28;20482;-94
2023/06/21 10:14:18;;;;;;;0.90;0.90;;;23.40;99.90;;;;;;4981453;28;20053;-93
2023/06/21 10:16:50;;;;;;;2.05;0.90;;;23.40;99.90;;;;;;4984608;28;20143;-94
2023/06/21 10:19:19;;;;;;;1.20;0.95;;;23.60;99.90;;;;;;5017376;28;20049;-94
2023/06/21 10:21:48;;;;;;;1.35;1.25;;;23.60;99.90;;;;;;4984808;28;20120;-94
2023/06/21 10:24:15;;;;;;;1.45;1.35;;;23.50;99.90;;;;;;5004523;28;20061;-92
2023/06/21 10:26:42;;;;;;;1.63;1.35;;;23.40;99.90;;;;;;4997963;28;20096;-94
2023/06/21 10:29:09;;;;;;;1.58;1.20;;;23.30;99.90;;;;;;4984489;28;20096;-94
2023/06/21 10:31:36;;;;;;;1.70;1.30;;;23.30;99.90;;;;;;5000852;28;20054;-88
2023/06/21 10:34:05;;;;;;;1.50;1.17;;;23.20;99.90;;;;;;4999221;28;20042;-94
2023/06/21 10:36:32;;;;;;;1.45;1.25;;;23.20;99.90;;;;;;5015404;28;20073;-93
2023/06/21 10:39:04;;;;;;;1.90;1.40;;;23.20;99.90;;;;;;5016681;28;20128;-92
2023/06/21 10:41:31;;;;;;;1.75;1.13;;;23.30;99.90;;;;;;5008185;28;20050;-92
2023/06/21 10:43:57;;;;;;;1.13;1.02;;;23.50;99.90;;;;;;4992415;28;20346;-93
2023/06/21 10:46:24;;;;;;;1.63;1.08;;;23.60;99.90;;;;;;5024213;28;20054;-92
2023/06/21 10:48:51;;;;;;;1.58;1.40;;;23.80;99.90;;;;;;5017195;28;20079;-93
2023/06/21 10:51:18;;;;;;;1.60;1.27;;;23.90;99.90;;;;;;5000512;28;20050;-92
2023/06/21 10:53:45;;;;;;;1.60;1.10;;;23.90;99.90;;;;;;5017346;28;20093;-92
2023/06/21 10:56:16;;;;;;;1.83;1.10;;;23.90;99.90;;;;;;5003253;28;20087;-92
2023/06/21 10:58:43;;;;;;;1.23;1.10;;;23.80;99.90;;;;;;5013872;28;20085;-90
2023/06/21 11:01:11;;;;;;;1.60;1.08;;;23.70;99.90;;;;;;5032101;28;20041;-90
2023/06/21 11:03:38;;;;;;;1.05;0.93;;;23.60;99.90;;;;;;4984401;28;20054;-90
2023/06/21 11:06:28;;;;;;;1.23;1.13;;;23.60;99.90;;;;;;5017933;28;20057;-90
2023/06/21 11:09:08;;;;;;;1.40;1.00;;;24.00;99.90;;;;;;5000394;28;20500;-90
2023/06/21 11:11:36;;;;;;;1.23;1.00;;;24.70;99.90;;;;;;5013020;28;20058;-90
2023/06/21 11:14:04;;;;;;;1.02;0.90;;;25.10;99.90;;;;;;5012045;28;20072;-90
2023/06/21 11:16:34;;;;;;;1.55;1.20;;;25.30;99.90;;;;;;5024874;28;20468;-90
2023/06/21 11:19:10;;;;;;;1.15;0.95;;;25.40;99.90;;;;;;5028065;28;20081;-91
2023/06/21 11:21:44;;;;;;;0.80;0.75;;;25.60;99.90;;;;;;4981625;28;20052;-90
2023/06/21 11:24:16;;;;;;;1.10;0.80;;;25.50;99.70;;;;;;4981598;28;20152;-91
2023/06/21 11:27:09;;;;;;;0.75;0.70;;;25.40;99.70;;;;;;4979384;28;20056;-91
2023/06/21 11:29:36;;;;;;;1.10;1.00;;;25.80;99.80;;;;;;4995514;28;20046;-90
2023/06/21 11:32:21;;;;;;;1.08;0.90;;;26.50;99.80;;;;;;4967216;28;1370854;-92
2023/06/21 11:34:59;;;;;;;0.80;0.80;;;26.90;99.60;;;;;;5003788;28;20049;-91
2023/06/21 11:37:36;;;;;;;0.98;0.85;;;26.70;99.40;;;;;;4997382;28;20053;-91
2023/06/21 11:40:05;;;;;;;0.98;0.80;;;26.50;98.90;;;;;;5012871;28;20046;-91
2023/06/21 11:42:52;;;;;;;1.20;1.00;;;27.00;98.40;;;;;;4996959;28;20523;-91
2023/06/21 11:45:27;;;;;;;0.90;0.70;;;27.70;98.00;;;;;;4983054;28;20065;-91
2023/06/21 11:48:12;;;;;;;1.13;0.90;;;28.00;97.30;;;;;;5014610;28;20067;-90
2023/06/21 11:50:48;;;;;;;1.83;1.30;;;27.90;97.90;;;;;;5015680;28;20064;-91
2023/06/21 11:53:17;;;;;;;1.20;0.90;;;27.30;97.00;;;;;;4999672;28;20062;-91
2023/06/21 11:55:45;;;;;;;1.08;0.82;;;26.60;97.50;;;;;;5014375;28;20049;-89
2023/06/21 11:58:11;;;;;;;1.00;0.82;;;26.20;98.00;;;;;;4996636;28;20050;-90
2023/06/21 12:00:38;;;;;;;1.23;0.90;;;25.80;98.60;;;;;;4997752;28;20084;-90
2023/06/21 12:03:06;;;;;;;1.17;0.90;;;25.50;99.00;;;;;;5013851;28;20105;-90
2023/06/21 12:05:46;;;;;;;1.05;0.90;;;25.20;99.40;;;;;;5011894;28;20058;-91
2023/06/21 12:08:13;;;;;;;1.10;1.00;;;25.00;99.50;;;;;;5012287;28;20054;-90
2023/06/21 12:10:40;;;;;;;2.10;1.13;;;25.00;99.70;;;;;;5011929;28;20061;-90
2023/06/21 12:13:07;;;;;;;1.10;1.00;;;24.90;99.40;;;;;;4985359;28;20359;-91
2023/06/21 12:15:34;;;;;;;1.35;0.88;;;25.00;99.30;;;;;;5000480;28;20049;-91
2023/06/21 12:18:02;;;;;;;2.08;0.90;;;25.20;99.60;;;;;;5006370;28;20132;-90
2023/06/21 12:20:29;;;;;;;1.20;0.95;;;25.60;99.20;;;;;;5024405;28;20049;-91
2023/06/21 12:22:56;;;;;;;1.20;0.90;;;25.50;99.30;;;;;;5016346;28;20111;-91
2023/06/21 12:25:23;;;;;;;1.13;0.90;;;25.30;99.00;;;;;;5016269;28;20066;-91
2023/06/21 12:27:55;;;;;;;1.27;1.10;;;25.30;99.30;;;;;;5023531;28;20053;-91
2023/06/21 12:30:22;;;;;;;1.02;0.80;;;26.00;98.70;;;;;;5022655;28;20049;-91
2023/06/21 12:32:49;;;;;;;1.95;1.05;;;26.40;98.20;;;;;;5006776;28;20064;-90
2023/06/21 12:35:17;;;;;;;0.70;0.70;;;26.50;98.20;;;;;;5021623;28;20081;-89
2023/06/21 12:37:47;;;;;;;0.98;0.88;;;26.40;98.50;;;;;;5011792;28;20049;-91
2023/06/21 12:40:17;;;;;;;1.30;0.90;;;27.20;98.00;;;;;;5014783;28;20054;-89
2023/06/21 12:42:45;;;;;;;1.58;0.93;;;26.80;97.70;;;;;;5014617;28;20045;-91
2023/06/21 12:45:20;;;;;;;1.00;0.80;;;27.40;97.70;;;;;;5015698;28;20058;-91
2023/06/21 12:47:49;;;;;;;1.70;1.02;;;27.90;97.00;;;;;;4998082;28;20049;-92
2023/06/21 12:50:20;;;;;;;1.48;1.20;;;28.30;96.00;;;;;;4994908;28;20060;-93
2023/06/21 12:53:00;;;;;;;1.88;1.00;;;28.60;95.90;;;;;;4994018;28;20054;-92
2023/06/21 12:55:27;;;;;;;1.33;1.10;;;29.20;95.20;;;;;;5007452;28;20049;-92
2023/06/21 12:57:54;;;;;;;1.33;1.20;;;29.50;93.80;;;;;;4979945;28;20524;-92